sensor_id;sensor_type;location;lat;lon;timestamp;P1;durP1;ratioP1;P2;durP2;ratioP2
3627;SDS011;1830;49.000;12.074;2024-03-29T00:01:46;4.40;;;4.00;;
3627;SDS011;1830;49.000;12.074;2024-03-29T00:04:12;6.27;;;3.93;;
3627;SDS011;1830;49.000;12.074;2024-03-29T00:06:38;4.03;;;3.70;;
3627;SDS011;1830;49.000;12.074;2024-03-29T00:09:03;4.07;;;3.43;;
3627;SDS011;1830;49.000;12.074;2024-03-29T00:11:29;5.00;;;3.67;;
3627;SDS011;1830;49.000;12.074;2024-03-29T00:13:56;5.40;;;3.93;;
3627;SDS011;1830;49.000;12.074;2024-03-29T00:16:22;4.00;;;3.20;;
3627;SDS011;1830;49.000;12.074;2024-03-29T00:18:50;4.30;;;4.00;;
3627;SDS011;1830;49.000;12.074;2024-03-29T00:21:15;4.27;;;3.80;;
3627;SDS011;1830;49.000;12.074;2024-03-29T00:23:41;6.23;;;3.97;;
3627;SDS011;1830;49.000;12.074;2024-03-29T00:26:08;7.37;;;4.73;;
3627;SDS011;1830;49.000;12.074;2024-03-29T00:28:34;4.10;;;3.70;;
3627;SDS011;1830;49.000;12.074;2024-03-29T00:31:00;17.00;;;5.13;;
3627;SDS011;1830;49.000;12.074;2024-03-29T00:33:26;4.57;;;3.93;;
3627;SDS011;1830;49.000;12.074;2024-03-29T00:35:53;4.53;;;4.10;;
3627;SDS011;1830;49.000;12.074;2024-03-29T00:38:19;4.43;;;4.00;;
3627;SDS011;1830;49.000;12.074;2024-03-29T00:40:45;6.83;;;4.90;;
3627;SDS011;1830;49.000;12.074;2024-03-29T00:43:11;4.57;;;4.07;;
3627;SDS011;1830;49.000;12.074;2024-03-29T00:45:36;4.63;;;4.13;;
3627;SDS011;1830;49.000;12.074;2024-03-29T00:48:03;5.07;;;3.80;;
3627;SDS011;1830;49.000;12.074;2024-03-29T00:50:29;12.30;;;4.50;;
3627;SDS011;1830;49.000;12.074;2024-03-29T00:52:56;6.10;;;4.30;;
3627;SDS011;1830;49.000;12.074;2024-03-29T00:55:22;7.90;;;5.37;;
3627;SDS011;1830;49.000;12.074;2024-03-29T00:57:48;4.67;;;4.27;;
3627;SDS011;1830;49.000;12.074;2024-03-29T01:00:14;5.27;;;4.27;;
3627;SDS011;1830;49.000;12.074;2024-03-29T01:02:40;4.37;;;4.03;;
3627;SDS011;1830;49.000;12.074;2024-03-29T01:05:06;4.47;;;3.90;;
3627;SDS011;1830;49.000;12.074;2024-03-29T01:07:33;5.33;;;4.50;;
3627;SDS011;1830;49.000;12.074;2024-03-29T01:10:00;4.40;;;4.00;;
3627;SDS011;1830;49.000;12.074;2024-03-29T01:12:26;5.77;;;4.30;;
3627;SDS011;1830;49.000;12.074;2024-03-29T01:14:52;7.40;;;4.60;;
3627;SDS011;1830;49.000;12.074;2024-03-29T01:17:18;5.10;;;4.47;;
3627;SDS011;1830;49.000;12.074;2024-03-29T01:19:44;4.63;;;4.20;;
3627;SDS011;1830;49.000;12.074;2024-03-29T01:22:10;7.33;;;4.27;;
3627;SDS011;1830;49.000;12.074;2024-03-29T01:24:36;5.23;;;4.53;;
3627;SDS011;1830;49.000;12.074;2024-03-29T01:27:03;8.53;;;4.00;;
3627;SDS011;1830;49.000;12.074;2024-03-29T01:29:31;7.40;;;4.80;;
3627;SDS011;1830;49.000;12.074;2024-03-29T01:31:57;4.93;;;4.43;;
3627;SDS011;1830;49.000;12.074;2024-03-29T01:34:23;6.10;;;4.40;;
3627;SDS011;1830;49.000;12.074;2024-03-29T01:36:49;9.73;;;4.90;;
3627;SDS011;1830;49.000;12.074;2024-03-29T01:39:15;5.43;;;4.30;;
3627;SDS011;1830;49.000;12.074;2024-03-29T01:41:41;6.00;;;4.70;;
3627;SDS011;1830;49.000;12.074;2024-03-29T01:44:08;9.73;;;4.30;;
3627;SDS011;1830;49.000;12.074;2024-03-29T01:46:36;5.30;;;4.50;;
3627;SDS011;1830;49.000;12.074;2024-03-29T01:49:03;6.67;;;4.67;;
3627;SDS011;1830;49.000;12.074;2024-03-29T01:51:31;4.17;;;3.77;;
3627;SDS011;1830;49.000;12.074;2024-03-29T01:53:58;4.53;;;4.00;;
3627;SDS011;1830;49.000;12.074;2024-03-29T01:56:26;4.57;;;3.87;;
3627;SDS011;1830;49.000;12.074;2024-03-29T01:58:54;4.37;;;3.97;;
3627;SDS011;1830;49.000;12.074;2024-03-29T02:01:24;5.83;;;4.53;;
3627;SDS011;1830;49.000;12.074;2024-03-29T02:03:53;3.90;;;3.60;;
3627;SDS011;1830;49.000;12.074;2024-03-29T02:06:21;4.60;;;4.10;;
3627;SDS011;1830;49.000;12.074;2024-03-29T02:08:49;4.40;;;3.83;;
3627;SDS011;1830;49.000;12.074;2024-03-29T02:11:18;4.60;;;3.70;;
3627;SDS011;1830;49.000;12.074;2024-03-29T02:13:45;5.33;;;3.70;;
3627;SDS011;1830;49.000;12.074;2024-03-29T02:16:13;4.27;;;3.87;;
3627;SDS011;1830;49.000;12.074;2024-03-29T02:18:41;3.77;;;3.47;;
3627;SDS011;1830;49.000;12.074;2024-03-29T02:21:08;4.60;;;3.60;;
3627;SDS011;1830;49.000;12.074;2024-03-29T02:23:37;7.37;;;4.00;;
3627;SDS011;1830;49.000;12.074;2024-03-29T02:26:12;4.33;;;3.97;;
3627;SDS011;1830;49.000;12.074;2024-03-29T02:28:39;3.50;;;3.20;;
3627;SDS011;1830;49.000;12.074;2024-03-29T02:31:06;5.23;;;3.90;;
3627;SDS011;1830;49.000;12.074;2024-03-29T02:33:34;3.30;;;2.90;;
3627;SDS011;1830;49.000;12.074;2024-03-29T02:36:00;3.13;;;2.93;;
3627;SDS011;1830;49.000;12.074;2024-03-29T02:38:27;3.27;;;2.97;;
3627;SDS011;1830;49.000;12.074;2024-03-29T02:40:54;3.10;;;2.90;;
3627;SDS011;1830;49.000;12.074;2024-03-29T02:43:23;4.43;;;3.60;;
3627;SDS011;1830;49.000;12.074;2024-03-29T02:45:50;3.47;;;3.17;;
3627;SDS011;1830;49.000;12.074;2024-03-29T02:48:16;3.13;;;2.90;;
3627;SDS011;1830;49.000;12.074;2024-03-29T02:50:42;3.10;;;2.80;;
3627;SDS011;1830;49.000;12.074;2024-03-29T02:53:09;4.37;;;3.27;;
3627;SDS011;1830;49.000;12.074;2024-03-29T02:55:35;2.40;;;2.20;;
3627;SDS011;1830;49.000;12.074;2024-03-29T02:58:02;3.07;;;2.83;;
3627;SDS011;1830;49.000;12.074;2024-03-29T03:00:29;4.17;;;2.93;;
3627;SDS011;1830;49.000;12.074;2024-03-29T03:02:56;2.50;;;2.30;;
3627;SDS011;1830;49.000;12.074;2024-03-29T03:05:22;3.13;;;2.90;;
3627;SDS011;1830;49.000;12.074;2024-03-29T03:07:49;5.80;;;3.30;;
3627;SDS011;1830;49.000;12.074;2024-03-29T03:10:33;3.23;;;2.63;;
3627;SDS011;1830;49.000;12.074;2024-03-29T03:13:17;3.97;;;3.00;;
3627;SDS011;1830;49.000;12.074;2024-03-29T03:15:45;3.33;;;3.03;;
3627;SDS011;1830;49.000;12.074;2024-03-29T03:18:12;4.77;;;2.77;;
3627;SDS011;1830;49.000;12.074;2024-03-29T03:20:39;3.53;;;3.20;;
3627;SDS011;1830;49.000;12.074;2024-03-29T03:23:05;3.83;;;2.90;;
3627;SDS011;1830;49.000;12.074;2024-03-29T03:25:32;2.97;;;2.67;;
3627;SDS011;1830;49.000;12.074;2024-03-29T03:27:57;3.00;;;2.80;;
3627;SDS011;1830;49.000;12.074;2024-03-29T03:30:24;3.57;;;2.90;;
3627;SDS011;1830;49.000;12.074;2024-03-29T03:32:52;3.20;;;3.00;;
3627;SDS011;1830;49.000;12.074;2024-03-29T03:35:18;3.70;;;3.20;;
3627;SDS011;1830;49.000;12.074;2024-03-29T03:37:44;7.20;;;2.83;;
3627;SDS011;1830;49.000;12.074;2024-03-29T03:40:11;10.33;;;3.40;;
3627;SDS011;1830;49.000;12.074;2024-03-29T03:42:37;3.10;;;2.80;;
3627;SDS011;1830;49.000;12.074;2024-03-29T03:45:04;3.70;;;3.40;;
3627;SDS011;1830;49.000;12.074;2024-03-29T03:47:30;3.77;;;3.27;;
3627;SDS011;1830;49.000;12.074;2024-03-29T03:49:58;4.40;;;3.60;;
3627;SDS011;1830;49.000;12.074;2024-03-29T03:52:24;4.43;;;4.00;;
3627;SDS011;1830;49.000;12.074;2024-03-29T03:54:51;4.77;;;4.27;;
3627;SDS011;1830;49.000;12.074;2024-03-29T03:57:17;6.70;;;3.90;;
3627;SDS011;1830;49.000;12.074;2024-03-29T03:59:44;5.50;;;4.00;;
3627;SDS011;1830;49.000;12.074;2024-03-29T04:02:10;8.03;;;3.90;;
3627;SDS011;1830;49.000;12.074;2024-03-29T04:04:37;6.90;;;3.37;;
3627;SDS011;1830;49.000;12.074;2024-03-29T04:07:04;4.87;;;4.37;;
3627;SDS011;1830;49.000;12.074;2024-03-29T04:09:31;4.30;;;3.90;;
3627;SDS011;1830;49.000;12.074;2024-03-29T04:11:57;4.53;;;3.90;;
3627;SDS011;1830;49.000;12.074;2024-03-29T04:14:24;6.10;;;4.67;;
3627;SDS011;1830;49.000;12.074;2024-03-29T04:16:49;3.93;;;3.63;;
3627;SDS011;1830;49.000;12.074;2024-03-29T04:19:16;3.30;;;3.00;;
3627;SDS011;1830;49.000;12.074;2024-03-29T04:21:42;4.13;;;2.80;;
3627;SDS011;1830;49.000;12.074;2024-03-29T04:24:10;4.10;;;3.50;;
3627;SDS011;1830;49.000;12.074;2024-03-29T04:26:36;5.50;;;3.77;;
3627;SDS011;1830;49.000;12.074;2024-03-29T04:29:03;5.40;;;3.40;;
3627;SDS011;1830;49.000;12.074;2024-03-29T04:31:29;3.77;;;3.47;;
3627;SDS011;1830;49.000;12.074;2024-03-29T04:33:56;6.83;;;3.00;;
3627;SDS011;1830;49.000;12.074;2024-03-29T04:36:22;3.30;;;3.10;;
3627;SDS011;1830;49.000;12.074;2024-03-29T04:38:49;3.93;;;2.77;;
3627;SDS011;1830;49.000;12.074;2024-03-29T04:41:17;3.37;;;3.07;;
3627;SDS011;1830;49.000;12.074;2024-03-29T04:43:44;5.47;;;3.37;;
3627;SDS011;1830;49.000;12.074;2024-03-29T04:46:12;4.57;;;3.30;;
3627;SDS011;1830;49.000;12.074;2024-03-29T04:48:41;3.20;;;3.00;;
3627;SDS011;1830;49.000;12.074;2024-03-29T04:51:10;4.07;;;3.40;;
3627;SDS011;1830;49.000;12.074;2024-03-29T04:53:38;5.80;;;3.63;;
3627;SDS011;1830;49.000;12.074;2024-03-29T04:56:06;3.47;;;3.23;;
3627;SDS011;1830;49.000;12.074;2024-03-29T04:58:34;4.37;;;2.90;;
3627;SDS011;1830;49.000;12.074;2024-03-29T05:01:01;17.27;;;3.40;;
3627;SDS011;1830;49.000;12.074;2024-03-29T05:03:29;3.20;;;2.90;;
3627;SDS011;1830;49.000;12.074;2024-03-29T05:05:55;3.67;;;3.23;;
3627;SDS011;1830;49.000;12.074;2024-03-29T05:08:25;3.97;;;3.60;;
3627;SDS011;1830;49.000;12.074;2024-03-29T05:10:51;3.83;;;3.53;;
3627;SDS011;1830;49.000;12.074;2024-03-29T05:13:18;9.93;;;3.87;;
3627;SDS011;1830;49.000;12.074;2024-03-29T05:15:47;3.63;;;2.73;;
3627;SDS011;1830;49.000;12.074;2024-03-29T05:18:14;5.33;;;3.20;;
3627;SDS011;1830;49.000;12.074;2024-03-29T05:20:48;4.30;;;3.50;;
3627;SDS011;1830;49.000;12.074;2024-03-29T05:23:16;4.10;;;3.70;;
3627;SDS011;1830;49.000;12.074;2024-03-29T05:25:43;3.87;;;3.47;;
3627;SDS011;1830;49.000;12.074;2024-03-29T05:28:10;3.53;;;2.50;;
3627;SDS011;1830;49.000;12.074;2024-03-29T05:30:36;4.10;;;3.80;;
3627;SDS011;1830;49.000;12.074;2024-03-29T05:33:05;3.57;;;3.27;;
3627;SDS011;1830;49.000;12.074;2024-03-29T05:35:33;3.70;;;3.40;;
3627;SDS011;1830;49.000;12.074;2024-03-29T05:38:00;4.70;;;3.47;;
3627;SDS011;1830;49.000;12.074;2024-03-29T05:40:26;4.30;;;3.53;;
3627;SDS011;1830;49.000;12.074;2024-03-29T05:43:06;3.93;;;3.50;;
3627;SDS011;1830;49.000;12.074;2024-03-29T05:45:33;3.63;;;3.33;;
3627;SDS011;1830;49.000;12.074;2024-03-29T05:48:00;6.40;;;3.43;;
3627;SDS011;1830;49.000;12.074;2024-03-29T05:50:28;3.47;;;3.17;;
3627;SDS011;1830;49.000;12.074;2024-03-29T05:52:55;5.03;;;3.60;;
3627;SDS011;1830;49.000;12.074;2024-03-29T05:55:24;4.43;;;3.53;;
3627;SDS011;1830;49.000;12.074;2024-03-29T05:57:51;3.77;;;3.40;;
3627;SDS011;1830;49.000;12.074;2024-03-29T06:00:18;8.80;;;3.33;;
3627;SDS011;1830;49.000;12.074;2024-03-29T06:02:46;3.73;;;3.40;;
3627;SDS011;1830;49.000;12.074;2024-03-29T06:05:13;4.87;;;4.37;;
3627;SDS011;1830;49.000;12.074;2024-03-29T06:07:42;3.93;;;3.63;;
3627;SDS011;1830;49.000;12.074;2024-03-29T06:10:09;4.70;;;4.23;;
3627;SDS011;1830;49.000;12.074;2024-03-29T06:12:36;5.67;;;4.30;;
3627;SDS011;1830;49.000;12.074;2024-03-29T06:15:04;5.17;;;4.77;;
3627;SDS011;1830;49.000;12.074;2024-03-29T06:17:49;5.87;;;3.93;;
3627;SDS011;1830;49.000;12.074;2024-03-29T06:20:16;4.63;;;4.13;;
3627;SDS011;1830;49.000;12.074;2024-03-29T06:22:44;5.60;;;4.30;;
3627;SDS011;1830;49.000;12.074;2024-03-29T06:25:11;4.23;;;3.83;;
3627;SDS011;1830;49.000;12.074;2024-03-29T06:27:38;5.60;;;5.00;;
3627;SDS011;1830;49.000;12.074;2024-03-29T06:30:05;5.23;;;4.50;;
3627;SDS011;1830;49.000;12.074;2024-03-29T06:32:33;4.30;;;3.97;;
3627;SDS011;1830;49.000;12.074;2024-03-29T06:35:00;5.40;;;4.30;;
3627;SDS011;1830;49.000;12.074;2024-03-29T06:37:27;5.67;;;4.53;;
3627;SDS011;1830;49.000;12.074;2024-03-29T06:39:55;5.90;;;4.93;;
3627;SDS011;1830;49.000;12.074;2024-03-29T06:42:22;4.40;;;3.67;;
3627;SDS011;1830;49.000;12.074;2024-03-29T06:44:49;6.63;;;4.80;;
3627;SDS011;1830;49.000;12.074;2024-03-29T06:50:08;8.13;;;6.93;;
3627;SDS011;1830;49.000;12.074;2024-03-29T06:52:35;8.73;;;6.17;;
3627;SDS011;1830;49.000;12.074;2024-03-29T06:55:05;6.20;;;4.60;;
3627;SDS011;1830;49.000;12.074;2024-03-29T06:57:32;4.87;;;4.23;;
3627;SDS011;1830;49.000;12.074;2024-03-29T07:00:00;4.77;;;4.37;;
3627;SDS011;1830;49.000;12.074;2024-03-29T07:02:28;4.55;;;4.05;;
3627;SDS011;1830;49.000;12.074;2024-03-29T07:04:55;4.67;;;4.10;;
3627;SDS011;1830;49.000;12.074;2024-03-29T07:07:30;4.90;;;4.40;;
3627;SDS011;1830;49.000;12.074;2024-03-29T07:09:57;6.03;;;4.47;;
3627;SDS011;1830;49.000;12.074;2024-03-29T07:12:25;8.30;;;5.13;;
3627;SDS011;1830;49.000;12.074;2024-03-29T07:14:52;5.30;;;4.03;;
3627;SDS011;1830;49.000;12.074;2024-03-29T07:17:19;6.10;;;4.80;;
3627;SDS011;1830;49.000;12.074;2024-03-29T07:19:46;6.73;;;4.87;;
3627;SDS011;1830;49.000;12.074;2024-03-29T07:22:12;5.90;;;4.50;;
3627;SDS011;1830;49.000;12.074;2024-03-29T07:24:39;5.33;;;4.80;;
3627;SDS011;1830;49.000;12.074;2024-03-29T07:27:06;6.00;;;5.20;;
3627;SDS011;1830;49.000;12.074;2024-03-29T07:29:34;9.00;;;5.10;;
3627;SDS011;1830;49.000;12.074;2024-03-29T07:32:01;6.57;;;5.13;;
3627;SDS011;1830;49.000;12.074;2024-03-29T07:34:28;10.90;;;5.67;;
3627;SDS011;1830;49.000;12.074;2024-03-29T07:36:55;6.40;;;5.13;;
3627;SDS011;1830;49.000;12.074;2024-03-29T07:39:22;5.77;;;4.97;;
3627;SDS011;1830;49.000;12.074;2024-03-29T07:41:49;7.37;;;5.57;;
3627;SDS011;1830;49.000;12.074;2024-03-29T07:44:16;11.40;;;5.03;;
3627;SDS011;1830;49.000;12.074;2024-03-29T07:46:44;6.87;;;5.40;;
3627;SDS011;1830;49.000;12.074;2024-03-29T07:49:12;6.07;;;5.20;;
3627;SDS011;1830;49.000;12.074;2024-03-29T07:51:39;5.60;;;4.60;;
3627;SDS011;1830;49.000;12.074;2024-03-29T07:54:07;6.03;;;5.17;;
3627;SDS011;1830;49.000;12.074;2024-03-29T07:56:34;8.37;;;5.40;;
3627;SDS011;1830;49.000;12.074;2024-03-29T07:59:01;5.10;;;4.60;;
3627;SDS011;1830;49.000;12.074;2024-03-29T08:01:27;5.57;;;4.90;;
3627;SDS011;1830;49.000;12.074;2024-03-29T08:03:56;6.03;;;5.20;;
3627;SDS011;1830;49.000;12.074;2024-03-29T08:06:22;7.80;;;4.07;;
3627;SDS011;1830;49.000;12.074;2024-03-29T08:08:49;9.10;;;4.67;;
3627;SDS011;1830;49.000;12.074;2024-03-29T08:11:16;7.10;;;6.37;;
3627;SDS011;1830;49.000;12.074;2024-03-29T08:13:43;8.50;;;6.03;;
3627;SDS011;1830;49.000;12.074;2024-03-29T08:16:10;9.17;;;6.10;;
3627;SDS011;1830;49.000;12.074;2024-03-29T08:18:37;7.30;;;4.87;;
3627;SDS011;1830;49.000;12.074;2024-03-29T08:24:08;10.70;;;5.27;;
3627;SDS011;1830;49.000;12.074;2024-03-29T08:26:36;6.63;;;5.20;;
3627;SDS011;1830;49.000;12.074;2024-03-29T08:29:03;7.50;;;5.80;;
3627;SDS011;1830;49.000;12.074;2024-03-29T08:31:29;4.70;;;4.30;;
3627;SDS011;1830;49.000;12.074;2024-03-29T08:33:56;7.20;;;4.70;;
3627;SDS011;1830;49.000;12.074;2024-03-29T08:36:29;5.37;;;4.87;;
3627;SDS011;1830;49.000;12.074;2024-03-29T08:38:56;12.03;;;4.90;;
3627;SDS011;1830;49.000;12.074;2024-03-29T08:41:24;4.90;;;4.40;;
3627;SDS011;1830;49.000;12.074;2024-03-29T08:43:51;8.23;;;5.33;;
3627;SDS011;1830;49.000;12.074;2024-03-29T08:46:18;5.60;;;4.20;;
3627;SDS011;1830;49.000;12.074;2024-03-29T08:48:51;6.07;;;4.57;;
3627;SDS011;1830;49.000;12.074;2024-03-29T08:51:18;5.43;;;4.23;;
3627;SDS011;1830;49.000;12.074;2024-03-29T08:53:45;6.03;;;4.70;;
3627;SDS011;1830;49.000;12.074;2024-03-29T08:56:12;4.47;;;4.07;;
3627;SDS011;1830;49.000;12.074;2024-03-29T08:58:42;18.67;;;9.40;;
3627;SDS011;1830;49.000;12.074;2024-03-29T09:01:08;5.10;;;4.13;;
3627;SDS011;1830;49.000;12.074;2024-03-29T09:03:39;6.00;;;4.50;;
3627;SDS011;1830;49.000;12.074;2024-03-29T09:06:06;4.47;;;4.00;;
3627;SDS011;1830;49.000;12.074;2024-03-29T09:08:33;6.40;;;4.93;;
3627;SDS011;1830;49.000;12.074;2024-03-29T09:10:59;12.07;;;5.00;;
3627;SDS011;1830;49.000;12.074;2024-03-29T09:13:29;3.83;;;3.50;;
3627;SDS011;1830;49.000;12.074;2024-03-29T09:15:58;7.70;;;4.33;;
3627;SDS011;1830;49.000;12.074;2024-03-29T09:18:26;5.23;;;4.03;;
3627;SDS011;1830;49.000;12.074;2024-03-29T09:20:56;7.80;;;4.10;;
3627;SDS011;1830;49.000;12.074;2024-03-29T09:23:24;4.60;;;3.73;;
3627;SDS011;1830;49.000;12.074;2024-03-29T09:25:53;9.23;;;4.30;;
3627;SDS011;1830;49.000;12.074;2024-03-29T09:28:20;4.80;;;3.90;;
3627;SDS011;1830;49.000;12.074;2024-03-29T09:30:47;4.70;;;3.50;;
3627;SDS011;1830;49.000;12.074;2024-03-29T09:33:16;7.50;;;3.93;;
3627;SDS011;1830;49.000;12.074;2024-03-29T09:35:42;4.30;;;3.90;;
3627;SDS011;1830;49.000;12.074;2024-03-29T09:38:09;6.30;;;3.53;;
3627;SDS011;1830;49.000;12.074;2024-03-29T09:40:36;4.17;;;3.63;;
3627;SDS011;1830;49.000;12.074;2024-03-29T09:43:03;3.93;;;3.53;;
3627;SDS011;1830;49.000;12.074;2024-03-29T09:45:31;7.10;;;4.83;;
3627;SDS011;1830;49.000;12.074;2024-03-29T09:48:02;4.10;;;3.70;;
3627;SDS011;1830;49.000;12.074;2024-03-29T09:50:31;6.13;;;3.60;;
3627;SDS011;1830;49.000;12.074;2024-03-29T09:53:00;3.57;;;3.27;;
3627;SDS011;1830;49.000;12.074;2024-03-29T09:55:27;8.57;;;3.87;;
3627;SDS011;1830;49.000;12.074;2024-03-29T09:57:55;4.43;;;3.50;;
3627;SDS011;1830;49.000;12.074;2024-03-29T10:00:22;6.70;;;2.90;;
3627;SDS011;1830;49.000;12.074;2024-03-29T10:02:49;3.63;;;2.90;;
3627;SDS011;1830;49.000;12.074;2024-03-29T10:05:19;6.17;;;3.43;;
3627;SDS011;1830;49.000;12.074;2024-03-29T10:07:48;3.50;;;2.97;;
3627;SDS011;1830;49.000;12.074;2024-03-29T10:10:16;4.67;;;3.27;;
3627;SDS011;1830;49.000;12.074;2024-03-29T10:12:43;3.27;;;2.97;;
3627;SDS011;1830;49.000;12.074;2024-03-29T10:15:10;3.50;;;3.20;;
3627;SDS011;1830;49.000;12.074;2024-03-29T10:17:39;4.70;;;4.20;;
3627;SDS011;1830;49.000;12.074;2024-03-29T10:20:10;4.63;;;2.93;;
3627;SDS011;1830;49.000;12.074;2024-03-29T10:22:40;4.20;;;3.10;;
3627;SDS011;1830;49.000;12.074;2024-03-29T10:25:08;5.10;;;3.30;;
3627;SDS011;1830;49.000;12.074;2024-03-29T10:27:38;3.10;;;2.80;;
3627;SDS011;1830;49.000;12.074;2024-03-29T10:30:06;2.97;;;2.60;;
3627;SDS011;1830;49.000;12.074;2024-03-29T10:32:34;3.50;;;2.80;;
3627;SDS011;1830;49.000;12.074;2024-03-29T10:35:03;3.20;;;2.70;;
3627;SDS011;1830;49.000;12.074;2024-03-29T10:37:30;3.07;;;2.77;;
3627;SDS011;1830;49.000;12.074;2024-03-29T10:40:04;3.63;;;2.73;;
3627;SDS011;1830;49.000;12.074;2024-03-29T10:42:34;3.57;;;2.50;;
3627;SDS011;1830;49.000;12.074;2024-03-29T10:45:03;3.37;;;3.03;;
3627;SDS011;1830;49.000;12.074;2024-03-29T10:47:31;3.70;;;3.00;;
3627;SDS011;1830;49.000;12.074;2024-03-29T10:49:59;2.63;;;2.20;;
3627;SDS011;1830;49.000;12.074;2024-03-29T10:52:27;8.03;;;2.93;;
3627;SDS011;1830;49.000;12.074;2024-03-29T10:54:54;3.00;;;2.60;;
3627;SDS011;1830;49.000;12.074;2024-03-29T10:57:22;2.90;;;2.27;;
3627;SDS011;1830;49.000;12.074;2024-03-29T10:59:54;5.17;;;2.70;;
3627;SDS011;1830;49.000;12.074;2024-03-29T11:02:31;2.20;;;2.10;;
3627;SDS011;1830;49.000;12.074;2024-03-29T11:05:02;2.53;;;2.33;;
3627;SDS011;1830;49.000;12.074;2024-03-29T11:07:33;5.03;;;2.80;;
3627;SDS011;1830;49.000;12.074;2024-03-29T11:10:04;3.00;;;2.23;;
3627;SDS011;1830;49.000;12.074;2024-03-29T11:12:37;2.40;;;2.10;;
3627;SDS011;1830;49.000;12.074;2024-03-29T11:15:28;3.03;;;2.53;;
3627;SDS011;1830;49.000;12.074;2024-03-29T11:17:56;2.20;;;2.10;;
3627;SDS011;1830;49.000;12.074;2024-03-29T11:20:24;2.40;;;2.20;;
3627;SDS011;1830;49.000;12.074;2024-03-29T11:23:00;2.30;;;2.20;;
3627;SDS011;1830;49.000;12.074;2024-03-29T11:25:40;2.60;;;2.40;;
3627;SDS011;1830;49.000;12.074;2024-03-29T11:28:08;4.07;;;2.33;;
3627;SDS011;1830;49.000;12.074;2024-03-29T11:30:43;2.57;;;2.37;;
3627;SDS011;1830;49.000;12.074;2024-03-29T11:33:27;2.13;;;1.93;;
3627;SDS011;1830;49.000;12.074;2024-03-29T11:35:56;3.37;;;3.07;;
3627;SDS011;1830;49.000;12.074;2024-03-29T11:38:30;2.70;;;2.00;;
3627;SDS011;1830;49.000;12.074;2024-03-29T11:41:02;2.67;;;2.40;;
3627;SDS011;1830;49.000;12.074;2024-03-29T11:43:33;2.70;;;2.50;;
3627;SDS011;1830;49.000;12.074;2024-03-29T11:46:04;4.93;;;2.30;;
3627;SDS011;1830;49.000;12.074;2024-03-29T11:48:32;3.10;;;2.23;;
3627;SDS011;1830;49.000;12.074;2024-03-29T11:51:00;9.53;;;2.30;;
3627;SDS011;1830;49.000;12.074;2024-03-29T11:53:28;2.50;;;2.20;;
3627;SDS011;1830;49.000;12.074;2024-03-29T11:55:55;2.43;;;2.23;;
3627;SDS011;1830;49.000;12.074;2024-03-29T11:58:32;3.40;;;2.83;;
3627;SDS011;1830;49.000;12.074;2024-03-29T12:01:02;5.00;;;2.30;;
3627;SDS011;1830;49.000;12.074;2024-03-29T12:03:29;3.40;;;2.57;;
3627;SDS011;1830;49.000;12.074;2024-03-29T12:08:30;10.93;;;2.50;;
3627;SDS011;1830;49.000;12.074;2024-03-29T12:10:58;2.67;;;2.47;;
3627;SDS011;1830;49.000;12.074;2024-03-29T12:13:25;2.50;;;2.30;;
3627;SDS011;1830;49.000;12.074;2024-03-29T12:15:53;3.30;;;2.97;;
3627;SDS011;1830;49.000;12.074;2024-03-29T12:18:22;2.93;;;2.60;;
3627;SDS011;1830;49.000;12.074;2024-03-29T12:20:50;2.20;;;2.10;;
3627;SDS011;1830;49.000;12.074;2024-03-29T12:23:17;2.83;;;2.57;;
3627;SDS011;1830;49.000;12.074;2024-03-29T12:25:45;8.13;;;2.77;;
3627;SDS011;1830;49.000;12.074;2024-03-29T12:28:13;2.10;;;1.97;;
3627;SDS011;1830;49.000;12.074;2024-03-29T12:30:42;2.50;;;2.33;;
3627;SDS011;1830;49.000;12.074;2024-03-29T12:33:11;2.43;;;2.23;;
3627;SDS011;1830;49.000;12.074;2024-03-29T12:35:42;2.37;;;2.17;;
3627;SDS011;1830;49.000;12.074;2024-03-29T12:38:11;2.20;;;2.10;;
3627;SDS011;1830;49.000;12.074;2024-03-29T12:40:38;4.87;;;2.37;;
3627;SDS011;1830;49.000;12.074;2024-03-29T12:43:08;2.70;;;2.50;;
3627;SDS011;1830;49.000;12.074;2024-03-29T12:45:36;2.20;;;2.10;;
3627;SDS011;1830;49.000;12.074;2024-03-29T12:48:09;2.10;;;2.00;;
3627;SDS011;1830;49.000;12.074;2024-03-29T12:50:36;2.63;;;1.93;;
3627;SDS011;1830;49.000;12.074;2024-03-29T12:53:07;2.63;;;2.10;;
3627;SDS011;1830;49.000;12.074;2024-03-29T12:55:34;2.17;;;1.97;;
3627;SDS011;1830;49.000;12.074;2024-03-29T12:58:03;4.07;;;2.00;;
3627;SDS011;1830;49.000;12.074;2024-03-29T13:00:34;1.97;;;1.77;;
3627;SDS011;1830;49.000;12.074;2024-03-29T13:03:01;2.10;;;2.00;;
3627;SDS011;1830;49.000;12.074;2024-03-29T13:05:28;2.20;;;2.00;;
3627;SDS011;1830;49.000;12.074;2024-03-29T13:07:59;2.30;;;2.17;;
3627;SDS011;1830;49.000;12.074;2024-03-29T13:10:27;3.03;;;2.23;;
3627;SDS011;1830;49.000;12.074;2024-03-29T13:12:54;3.53;;;3.23;;
3627;SDS011;1830;49.000;12.074;2024-03-29T13:15:21;2.53;;;2.27;;
3627;SDS011;1830;49.000;12.074;2024-03-29T13:17:50;2.67;;;2.03;;
3627;SDS011;1830;49.000;12.074;2024-03-29T13:20:18;3.10;;;2.57;;
3627;SDS011;1830;49.000;12.074;2024-03-29T13:22:45;2.67;;;2.17;;
3627;SDS011;1830;49.000;12.074;2024-03-29T13:25:15;2.60;;;2.33;;
3627;SDS011;1830;49.000;12.074;2024-03-29T13:27:44;2.47;;;2.07;;
3627;SDS011;1830;49.000;12.074;2024-03-29T13:30:13;5.30;;;2.00;;
3627;SDS011;1830;49.000;12.074;2024-03-29T13:32:40;2.50;;;2.30;;
3627;SDS011;1830;49.000;12.074;2024-03-29T13:35:09;2.20;;;2.10;;
3627;SDS011;1830;49.000;12.074;2024-03-29T13:37:38;6.07;;;1.87;;
3627;SDS011;1830;49.000;12.074;2024-03-29T13:40:06;1.83;;;1.73;;
3627;SDS011;1830;49.000;12.074;2024-03-29T13:42:34;2.50;;;2.10;;
3627;SDS011;1830;49.000;12.074;2024-03-29T13:45:02;4.93;;;2.60;;
3627;SDS011;1830;49.000;12.074;2024-03-29T13:47:30;2.17;;;2.07;;
3627;SDS011;1830;49.000;12.074;2024-03-29T13:49:58;2.33;;;2.13;;
3627;SDS011;1830;49.000;12.074;2024-03-29T13:52:25;3.87;;;2.50;;
3627;SDS011;1830;49.000;12.074;2024-03-29T13:54:52;2.47;;;2.27;;
3627;SDS011;1830;49.000;12.074;2024-03-29T13:57:19;2.30;;;1.60;;
3627;SDS011;1830;49.000;12.074;2024-03-29T13:59:46;2.77;;;2.03;;
3627;SDS011;1830;49.000;12.074;2024-03-29T14:02:15;3.23;;;1.80;;
3627;SDS011;1830;49.000;12.074;2024-03-29T14:04:43;3.00;;;2.70;;
3627;SDS011;1830;49.000;12.074;2024-03-29T14:07:11;2.63;;;1.97;;
3627;SDS011;1830;49.000;12.074;2024-03-29T14:09:39;2.43;;;2.10;;
3627;SDS011;1830;49.000;12.074;2024-03-29T14:12:06;2.33;;;2.13;;
3627;SDS011;1830;49.000;12.074;2024-03-29T14:14:34;4.13;;;1.90;;
3627;SDS011;1830;49.000;12.074;2024-03-29T14:17:01;5.90;;;3.03;;
3627;SDS011;1830;49.000;12.074;2024-03-29T14:19:30;3.30;;;2.07;;
3627;SDS011;1830;49.000;12.074;2024-03-29T14:21:59;3.57;;;2.33;;
3627;SDS011;1830;49.000;12.074;2024-03-29T14:24:25;2.40;;;2.20;;
3627;SDS011;1830;49.000;12.074;2024-03-29T14:26:55;2.60;;;2.20;;
3627;SDS011;1830;49.000;12.074;2024-03-29T14:29:22;6.20;;;2.73;;
3627;SDS011;1830;49.000;12.074;2024-03-29T14:31:49;3.73;;;3.10;;
3627;SDS011;1830;49.000;12.074;2024-03-29T14:34:16;3.53;;;3.20;;
3627;SDS011;1830;49.000;12.074;2024-03-29T14:36:44;3.70;;;2.77;;
3627;SDS011;1830;49.000;12.074;2024-03-29T14:39:12;2.90;;;2.70;;
3627;SDS011;1830;49.000;12.074;2024-03-29T14:41:38;5.40;;;2.90;;
3627;SDS011;1830;49.000;12.074;2024-03-29T14:44:06;2.80;;;2.40;;
3627;SDS011;1830;49.000;12.074;2024-03-29T14:46:33;4.13;;;2.30;;
3627;SDS011;1830;49.000;12.074;2024-03-29T14:49:00;2.53;;;2.10;;
3627;SDS011;1830;49.000;12.074;2024-03-29T14:51:30;3.37;;;2.20;;
3627;SDS011;1830;49.000;12.074;2024-03-29T14:53:58;2.87;;;2.50;;
3627;SDS011;1830;49.000;12.074;2024-03-29T14:56:26;2.80;;;2.13;;
3627;SDS011;1830;49.000;12.074;2024-03-29T14:58:55;1.90;;;1.80;;
3627;SDS011;1830;49.000;12.074;2024-03-29T15:01:22;2.23;;;2.13;;
3627;SDS011;1830;49.000;12.074;2024-03-29T15:03:50;3.13;;;2.20;;
3627;SDS011;1830;49.000;12.074;2024-03-29T15:06:18;2.37;;;2.17;;
3627;SDS011;1830;49.000;12.074;2024-03-29T15:08:46;4.10;;;1.93;;
3627;SDS011;1830;49.000;12.074;2024-03-29T15:11:15;2.50;;;2.30;;
3627;SDS011;1830;49.000;12.074;2024-03-29T15:13:42;2.17;;;2.00;;